Flight Track Log - Related Links

Times and Time Zones

All times are in EDT time to prevent confusion due to time zone crossing. See the AAL1419 flight status page for this flight to view local times or setup timezone preferences in your user account.


Time Position Orientation Groundspeed Altitude Reporting Facility
EDT Latitude Longitude Course Direction KTS MPH feet Rate Location/Type
Mon 07:03:47 PM 25.7961 -80.2722 104° East 134 154 900  Level Miami Center
Mon 07:04:15 PM 25.7906 -80.2442 102° East 156 180 1,900 1,977 Climbing Miami Center
Mon 07:05:15 PM 25.7708 -80.1883 111° Southeast 175 201 3,800 2,150 Climbing Miami Center
Mon 07:06:00 PM 25.6829 -79.9063 104° East  Level FlightAware Approximate
Mon 07:06:15 PM 25.7433 -80.1114 112° Southeast 224 258 6,200  Level Miami Center
Mon 07:07:00 PM 25.6529 -79.7783 105° East  Level FlightAware Approximate
Mon 07:07:15 PM 25.7158 -80.0300 111° Southeast 264 304 8,800  Level Miami Center
Mon 07:08:00 PM 25.6331 -79.6490 104° East  Level FlightAware Approximate
Mon 07:08:15 PM 25.6947 -79.9419 105° East 281 323 11,000  Level Miami Center
Mon 07:09:00 PM 25.6036 -79.5209 104° East  Level FlightAware Approximate
Mon 07:09:15 PM 25.6781 -79.8378 100° East 312 359 12,700  Level Miami Center
Mon 07:10:15 PM 25.6533 -79.7242 104° East 346 398 15,400 3,050 Climbing Miami Center
Mon 07:11:15 PM 25.6303 -79.6153 103° East 358 412 18,800 2,550 Climbing Miami Center
Mon 07:12:15 PM 25.6072 -79.5019 103° East 368 423 20,500 1,800 Climbing Miami Center
Mon 07:13:15 PM 25.5800 -79.3814 104° East 381 438 22,400 1,850 Climbing Miami Center
Mon 07:14:15 PM 25.5508 -79.2519 104° East 402 463 24,200 1,700 Climbing Miami Center
Mon 07:15:15 PM 25.5197 -79.1178 104° East 425 489 25,800 1,800 Climbing Miami Center
Mon 07:16:15 PM 25.4861 -78.9789 105° East 450 518 27,800 1,600 Climbing Miami Center
Mon 07:17:15 PM 25.4586 -78.8567 104° East 455 524 29,000 600 Climbing Miami Center
Mon 07:18:15 PM 25.4186 -78.7178 108° East 455 524 29,000  Level Miami Center
Mon 07:19:15 PM 25.3489 -78.6042 124° Southeast 448 516 29,000  Level Miami Center
Mon 07:20:15 PM 25.2708 -78.4858 126° Southeast 458 527 29,000  Level Miami Center
Mon 07:21:15 PM 25.1908 -78.3653 126° Southeast 471 542 29,000  Level Miami Center
Mon 07:22:15 PM 25.1125 -78.2450 126° Southeast 486 559 29,000 650 Level Miami Center
Mon 07:23:15 PM 25.0319 -78.1250 127° Southeast 486 559 30,300 1,000 Climbing Miami Center
Mon 07:24:15 PM 24.9536 -78.0003 125° Southeast 486 559 31,000 350 Climbing Miami Center
Mon 07:25:15 PM 24.8731 -77.8781 126° Southeast 486 559 31,000  Level Miami Center
Mon 07:26:15 PM 24.7922 -77.7539 126° Southeast 497 572 31,000  Level Miami Center
Mon 07:27:15 PM 24.7114 -77.6275 125° Southeast 497 572 31,000  Level Miami Center
Mon 07:28:15 PM 24.6306 -77.5036 126° Southeast 497 572 31,000  Level Miami Center
Mon 07:29:15 PM 24.5475 -77.3797 126° Southeast 497 572 31,000  Level Miami Center
Mon 07:30:15 PM 24.4642 -77.2492 125° Southeast 502 578 31,000  Level Miami Center
Mon 07:31:15 PM 24.3808 -77.1211 126° Southeast 507 583 31,000  Level Miami Center
Mon 07:32:15 PM 24.2997 -76.9956 125° Southeast 507 583 31,000  Level Miami Center
Mon 07:33:15 PM 24.2181 -76.8703 126° Southeast 507 583 31,000  Level Miami Center
Mon 07:34:15 PM 24.1386 -76.7450 125° Southeast 507 583 31,000  Level Miami Center
Mon 07:35:15 PM 24.0528 -76.6222 127° Southeast 500 575 31,000  Level Miami Center
Mon 07:36:15 PM 23.9689 -76.4972 126° Southeast 500 575 31,000  Level Miami Center
Mon 07:37:15 PM 23.8850 -76.3725 126° Southeast 500 575 31,000  Level Miami Center
Mon 07:38:15 PM 23.8031 -76.2481 126° Southeast 500 575 31,000  Level Miami Center
Mon 07:39:15 PM 23.7208 -76.1214 125° Southeast 505 581 31,000  Level Miami Center
Mon 07:40:15 PM 23.6367 -75.9992 127° Southeast 505 581 31,000  Level Miami Center
Mon 07:41:15 PM 23.5544 -75.8753 126° Southeast 505 581 31,000  Level Miami Center
Mon 07:42:15 PM 23.4719 -75.7444 124° Southeast 506 582 31,000  Level Miami Center
Mon 07:43:15 PM 23.3747 -75.6094 128° Southeast 517 595 31,000  Level Miami Center
Mon 07:44:15 PM 23.2922 -75.4881 126° Southeast 512 589 31,000  Level Miami Center
Mon 07:45:15 PM 23.2075 -75.3647 127° Southeast 512 589 31,000  Level Miami Center
Mon 07:46:15 PM 23.1269 -75.2458 126° Southeast 505 581 31,000  Level Miami Center
Mon 07:47:15 PM 23.0419 -75.1228 127° Southeast 505 581 31,000  Level Miami Center
Mon 07:48:15 PM 22.9569 -75.0000 127° Southeast 505 581 31,000  Level Miami Center
Mon 07:49:15 PM 22.8717 -74.8772 127° Southeast 505 581 31,000  Level Miami Center
Mon 07:50:15 PM 22.7886 -74.7567 127° Southeast 505 581 31,000  Level Miami Center
Mon 07:51:15 PM 22.7053 -74.6342 126° Southeast 505 581 31,000  Level Miami Center
Mon 07:52:15 PM 22.6178 -74.5097 127° Southeast 510 587 31,000  Level Miami Center
Mon 07:53:15 PM 22.5322 -74.3853 127° Southeast 510 587 31,000  Level Miami Center
Mon 07:54:15 PM 22.4489 -74.2611 126° Southeast 515 593 31,000  Level Miami Center
Mon 07:55:15 PM 22.3631 -74.1417 128° Southeast 515 593 31,000  Level Miami Center
Mon 07:56:15 PM 22.2753 -74.0200 128° Southeast 515 593 31,000  Level Miami Center
Mon 07:57:15 PM 22.1914 -73.8986 127° Southeast 515 593 31,000  Level Miami Center
Mon 07:58:15 PM 22.1056 -73.7728 126° Southeast 510 587 31,000  Level Miami Center
Mon 07:59:15 PM 22.0236 -73.6492 126° Southeast 510 587 31,000  Level Miami Center
Mon 08:00:15 PM 21.9375 -73.5261 127° Southeast 510 587 31,000  Level Miami Center
Mon 08:01:15 PM 21.8511 -73.4031 127° Southeast 516 594 31,000  Level Miami Center
Mon 08:02:15 PM 21.7689 -73.2800 126° Southeast 516 594 31,000  Level Miami Center
Mon 08:03:15 PM 21.6825 -73.1594 128° Southeast 516 594 31,000  Level Miami Center
Mon 08:04:15 PM 21.5961 -73.0392 128° Southeast 516 594 31,000  Level Miami Center
Mon 08:05:15 PM 21.5094 -72.9144 127° Southeast 516 594 31,000  Level Miami Center
Mon 08:06:15 PM 21.4208 -72.7922 128° Southeast 522 601 31,000  Level Miami Center
Mon 08:07:15 PM 21.3339 -72.6700 127° Southeast 522 601 31,000  Level Miami Center
Mon 08:08:15 PM 21.2450 -72.5461 128° Southeast 522 601 31,000  Level Miami Center
Mon 08:09:15 PM 21.1558 -72.4219 128° Southeast 522 601 31,000  Level Miami Center
Mon 08:10:15 PM 21.0711 -72.3003 127° Southeast 522 601 31,000  Level Miami Center
Mon 08:11:15 PM 20.9817 -72.1767 128° Southeast 527 606 31,000  Level Miami Center
Mon 08:12:15 PM 20.8925 -72.0533 128° Southeast 527 606 31,000  Level Miami Center
Mon 08:13:15 PM 20.8031 -71.9322 128° Southeast 527 606 31,000  Level Miami Center
Mon 08:14:15 PM 20.7156 -71.8047 126° Southeast 527 606 31,000  Level Miami Center
Mon 08:15:15 PM 20.6261 -71.6839 128° Southeast 527 606 31,000  Level Miami Center
Mon 08:16:15 PM 20.5364 -71.5611 128° Southeast 527 606 31,000  Level Miami Center
Mon 08:17:15 PM 20.4489 -71.4406 128° Southeast 527 606 31,000  Level Miami Center
Mon 08:19:00 PM 20.2938 -71.2888 144° Southeast  Level FlightAware Approximate
Mon 08:26:00 PM 19.7663 -70.6205 115° Southeast  Level FlightAware Approximate
Mon 08:27:00 PM 19.6938 -70.5265 146° Southeast  Level FlightAware Approximate
Mon 08:28:00 PM 19.5925 -70.4541 146° Southeast  Level FlightAware Approximate
Mon 08:29:00 PM 19.4909 -70.3824 147° Southeast  Level FlightAware Approximate
Mon 08:30:00 PM 19.3882 -70.3125 147° Southeast  Level FlightAware Approximate
Mon 08:31:00 PM 19.2855 -70.2426 147° Southeast  Level FlightAware Approximate
Mon 08:32:00 PM 19.1828 -70.1728 147° Southeast  Level FlightAware Approximate
Mon 08:33:00 PM 19.0799 -70.1032 148° Southeast  Level FlightAware Approximate
Mon 08:34:00 PM 18.9767 -70.0344 148° Southeast  Level FlightAware Approximate
Mon 08:35:00 PM 18.8745 -69.9638 146° Southeast  Level FlightAware Approximate
Mon 08:36:00 PM 18.7726 -69.8928 148° Southeast  Level FlightAware Approximate
Mon 08:37:00 PM 18.6694 -69.8240 148° Southeast  Level FlightAware Approximate
Mon 08:38:00 PM 18.5686 -69.7515 145° Southeast  Level FlightAware Approximate
Mon 08:39:00 PM 18.4671 -69.6803 150° Southeast  Level FlightAware Approximate
Mon 08:40:00 PM 18.4297 -69.6689 150° Southeast  Level Estimated
Mon 08:41:00 PM 18.4297 -69.6689 150° Southeast  Level Estimated
Mon 08:42:00 PM 18.4297 -69.6689 150° Southeast  Level Estimated
Mon 08:43:00 PM 18.4297 -69.6689 150° Southeast  Level Estimated
Mon 08:44:00 PM 18.4297 -69.6689 150° Southeast  Level Estimated

Login

Don't have an account? Register now (free) for customized features, flight alerts, and more!